Seba Beach, Canada
Current Conditions -  °F | °C
As of 7:00 AM on Thursday 30 Oct 2014 (Local Time) from CWSE Reporting Station
Moderate Fog Moderate Fog  
Wind Chill: 24°   Ceiling: 200
Heat Index: 31°   Visibility: 3mi
Dew Point: 31°   Wind: 7mph
Humidity: 99%   Direction: 120°ESE
Pressure: 30.19"   Gusts: NA
Location:  53.57°N, 114.72°W
Report Text: CWSE 301300Z 12006KT 3SM FG OVC002 M01/M01 A3019 RMK SLP257 T10061007 WSI/SWOB
Loading
Personal Weather Stations






























Interactive Weather Map
Tropical Storm Tracking
New forecast layout! Learn more

10-Day Weather Forecast

Advertisements
Track Severe Weather on mobile